North Middletown, Kentucky
Current Conditions -  °F | °C
As of 1:55 PM on Monday 20 Oct 2014 (Local Time) from KIOB Reporting Station
Broken Clouds Broken Clouds  
Wind Chill: 55°   Ceiling: 10000
Heat Index: 55°   Visibility: 10mi
Dew Point: 48°   Wind: 12mph
Humidity: 77%   Direction: 250°WSW
Pressure: 29.99"   Gusts: 20mph
Location:  38.15°N, 84.11°W
Report Text: KIOB 201755Z AUTO 25010G17KT 10SM SCT017 BKN100 13/09 A2999 RMK AO2
Loading
Personal Weather Stations






























Interactive Weather Map
Tropical Storm Tracking
New forecast layout! Learn more

10-Day Weather Forecast

Advertisements
Track Severe Weather on mobile